Terminal Aerodrome Forecast
Issued by NWS

Home | Current Version | Previous Version | Text Only | Print | Product List | Glossary On
Versions: 1 2 3 4 5 6 7 8 9 10 11 12
000
FTUS42 TJSJ 280520
TAFJBQ
TAF
TJBQ 280520Z 2806/2906 13004KT P6SM SKC
     FM281330 02008KT P6SM FEW025
     FM282230 VRB04KT P6SM FEW020
      AMD NOT SKED TIL 281100=

USA.gov is the U.S. government's official web portal to all federal, state and local government web resources and services.